Time;durP1;ratioP1;P1;durP2;ratioP2;P2;SDS_P1;SDS_P2;PMS_P1;PMS_P2;Temp;Humidity;BMP_temperature;BMP_pressure;BME280_temperature;BME280_humidity;BME280_pressure;Samples;Min_cycle;Max_cycle;Signal;HPM_P1;HPM_P2
2023/07/31 00:00:25;;;;;;;2.97;1.70;;;13.70;18.70;;;;;;4980953;28;20184;-69
2023/07/31 00:02:51;;;;;;;3.43;1.70;;;13.70;18.70;;;;;;4980028;28;20190;-69
2023/07/31 00:05:17;;;;;;;5.90;2.10;;;13.70;18.50;;;;;;4980507;28;20208;-69
2023/07/31 00:07:43;;;;;;;2.37;1.47;;;13.70;19.00;;;;;;4981042;28;20425;-68
2023/07/31 00:10:09;;;;;;;3.37;2.10;;;13.70;19.30;;;;;;4980915;28;20565;-69
2023/07/31 00:12:34;;;;;;;5.67;2.20;;;13.60;19.60;;;;;;4980845;28;20251;-70
2023/07/31 00:15:00;;;;;;;3.97;1.60;;;13.60;19.90;;;;;;4980846;28;20963;-70
2023/07/31 00:17:25;;;;;;;5.73;2.17;;;13.60;20.80;;;;;;4981076;28;20175;-69
2023/07/31 00:19:51;;;;;;;4.37;1.50;;;13.50;20.50;;;;;;4981155;28;20198;-69
2023/07/31 00:22:16;;;;;;;3.73;1.50;;;13.50;20.70;;;;;;4981035;28;20229;-69
2023/07/31 00:24:42;;;;;;;2.80;1.80;;;13.50;20.30;;;;;;4980764;28;20199;-69
2023/07/31 00:27:08;;;;;;;4.40;1.63;;;13.50;20.20;;;;;;4980517;28;20181;-69
2023/07/31 00:29:33;;;;;;;3.70;1.80;;;13.50;20.50;;;;;;4980512;28;20263;-69
2023/07/31 00:31:59;;;;;;;6.33;2.10;;;13.50;20.70;;;;;;4980546;28;20182;-69
2023/07/31 00:34:24;;;;;;;6.60;1.90;;;13.50;20.70;;;;;;4981094;28;20219;-69
2023/07/31 00:36:50;;;;;;;2.90;1.70;;;13.50;20.70;;;;;;4980604;28;20184;-69
2023/07/31 00:39:16;;;;;;;3.23;1.90;;;13.50;20.50;;;;;;4980830;28;20170;-69
2023/07/31 00:41:42;;;;;;;5.53;2.60;;;13.50;20.00;;;;;;4980508;28;20182;-69
2023/07/31 00:44:07;;;;;;;2.83;1.80;;;13.50;19.70;;;;;;4981068;28;20902;-69
2023/07/31 00:46:33;;;;;;;3.70;2.23;;;13.50;19.80;;;;;;4981411;28;20180;-69
2023/07/31 00:48:59;;;;;;;2.83;1.83;;;13.50;19.80;;;;;;4981437;28;20193;-70
2023/07/31 00:51:25;;;;;;;7.17;2.57;;;13.60;19.50;;;;;;4980626;28;20179;-69
2023/07/31 00:53:54;;;;;;;7.40;1.73;;;13.50;19.40;;;;;;4980344;28;20490;-69
2023/07/31 00:56:19;;;;;;;2.23;1.50;;;13.50;19.70;;;;;;4980675;28;20235;-70
2023/07/31 00:58:45;;;;;;;2.90;1.70;;;13.50;20.10;;;;;;4979904;28;20432;-69
2023/07/31 01:01:10;;;;;;;3.23;1.90;;;13.50;19.80;;;;;;4980336;28;20184;-69
2023/07/31 01:03:36;;;;;;;2.23;1.30;;;13.50;19.90;;;;;;4988199;28;20195;-69
2023/07/31 01:06:23;;;;;;;4.10;2.00;;;13.50;19.60;;;;;;4985801;28;20201;-69
2023/07/31 01:08:58;;;;;;;5.43;2.13;;;13.50;19.80;;;;;;4979218;28;20720;-69
2023/07/31 01:11:29;;;;;;;4.20;1.23;;;13.50;19.80;;;;;;4978206;28;20418;-70
2023/07/31 01:13:55;;;;;;;2.90;2.33;;;13.60;19.60;;;;;;4977714;28;20854;-69
2023/07/31 01:16:21;;;;;;;6.70;2.47;;;13.60;19.60;;;;;;4977970;28;20939;-70
2023/07/31 01:18:47;;;;;;;2.97;1.93;;;13.60;19.40;;;;;;4977555;28;20418;-70
2023/07/31 01:21:33;;;;;;;3.77;2.00;;;13.60;19.70;;;;;;4977782;28;20256;-69
2023/07/31 01:24:04;;;;;;;2.70;1.60;;;13.50;19.90;;;;;;4977406;28;20174;-69
2023/07/31 01:26:34;;;;;;;3.90;1.67;;;13.50;20.10;;;;;;4977369;28;20891;-70
2023/07/31 01:29:25;;;;;;;7.53;2.40;;;13.40;20.70;;;;;;4976109;28;20424;-71
2023/07/31 01:31:55;;;;;;;3.17;1.67;;;13.40;20.70;;;;;;4977441;28;20891;-70
2023/07/31 01:34:21;;;;;;;3.00;1.50;;;13.40;20.20;;;;;;4977394;28;20469;-70
2023/07/31 01:36:50;;;;;;;2.60;1.50;;;13.40;20.70;;;;;;4977720;28;20780;-70
2023/07/31 01:39:16;;;;;;;2.43;1.40;;;13.40;20.70;;;;;;4977553;28;20791;-70
2023/07/31 01:41:41;;;;;;;3.10;1.67;;;13.40;20.60;;;;;;4977135;28;20414;-70
2023/07/31 01:44:07;;;;;;;3.80;1.67;;;13.40;20.70;;;;;;4977942;28;20263;-70
2023/07/31 01:46:32;;;;;;;3.57;1.73;;;13.40;21.30;;;;;;4977194;28;20715;-70
2023/07/31 01:48:58;;;;;;;3.97;2.00;;;13.40;20.70;;;;;;4976976;28;20206;-70
2023/07/31 01:51:24;;;;;;;3.83;1.97;;;13.30;20.70;;;;;;4976747;28;20607;-70
2023/07/31 01:53:49;;;;;;;4.87;1.53;;;13.30;20.60;;;;;;4976672;28;20211;-70
2023/07/31 01:56:15;;;;;;;3.27;1.83;;;13.30;20.60;;;;;;4977615;28;20193;-70
2023/07/31 01:58:40;;;;;;;3.47;1.63;;;13.30;21.00;;;;;;4975947;28;20184;-70
2023/07/31 02:01:06;;;;;;;2.80;1.87;;;13.30;21.20;;;;;;4976972;28;20566;-70
2023/07/31 02:03:31;;;;;;;3.30;2.20;;;13.20;21.20;;;;;;4975443;28;20540;-70
2023/07/31 02:05:57;;;;;;;2.70;1.73;;;13.20;21.40;;;;;;4976927;28;20213;-70
2023/07/31 02:08:22;;;;;;;3.40;2.30;;;13.20;21.00;;;;;;4976995;28;20187;-70
2023/07/31 02:10:48;;;;;;;3.17;1.83;;;13.20;21.60;;;;;;4977110;28;20298;-69
2023/07/31 02:13:14;;;;;;;2.33;1.47;;;13.20;21.80;;;;;;4976555;28;20205;-70
2023/07/31 02:15:39;;;;;;;3.60;1.47;;;13.20;22.10;;;;;;4976425;28;20213;-70
2023/07/31 02:18:05;;;;;;;5.17;2.27;;;13.10;22.40;;;;;;4976880;28;20662;-70
2023/07/31 02:20:34;;;;;;;4.00;1.70;;;13.10;22.80;;;;;;4976258;28;20186;-69
2023/07/31 02:22:59;;;;;;;2.60;1.83;;;13.00;22.70;;;;;;4976362;28;20663;-70
2023/07/31 02:25:25;;;;;;;2.27;1.70;;;13.00;22.90;;;;;;4976259;28;20441;-69
2023/07/31 02:27:50;;;;;;;2.63;1.73;;;13.00;22.90;;;;;;4976100;28;20231;-69
2023/07/31 02:30:16;;;;;;;2.23;1.33;;;13.00;22.90;;;;;;4975132;28;20183;-69
2023/07/31 02:32:42;;;;;;;3.60;1.83;;;13.00;23.00;;;;;;4976093;28;20729;-70
2023/07/31 02:35:07;;;;;;;2.63;1.60;;;13.00;23.40;;;;;;4976577;28;20202;-69
2023/07/31 02:37:34;;;;;;;2.20;1.50;;;13.00;23.20;;;;;;4976319;28;20178;-70
2023/07/31 02:39:59;;;;;;;4.37;1.90;;;13.00;23.30;;;;;;4975984;28;20947;-70
2023/07/31 02:42:25;;;;;;;3.90;1.97;;;13.00;23.10;;;;;;4975887;28;20408;-69
2023/07/31 02:44:55;;;;;;;4.70;2.10;;;13.00;22.50;;;;;;4974831;28;20203;-70
2023/07/31 02:47:21;;;;;;;3.77;1.80;;;13.00;22.20;;;;;;4976587;28;20162;-70
2023/07/31 02:49:47;;;;;;;4.77;2.33;;;13.00;22.00;;;;;;4975670;28;20934;-70
2023/07/31 02:52:12;;;;;;;2.27;1.70;;;13.10;21.70;;;;;;4976264;28;20415;-69
2023/07/31 02:54:38;;;;;;;3.03;1.70;;;13.00;21.80;;;;;;4976160;28;20227;-69
2023/07/31 02:57:04;;;;;;;3.53;1.90;;;13.10;22.00;;;;;;4975840;28;20542;-69
2023/07/31 02:59:30;;;;;;;3.87;1.73;;;13.10;22.10;;;;;;4975571;28;20181;-69
2023/07/31 03:01:55;;;;;;;4.57;1.93;;;13.00;22.00;;;;;;4975296;28;20469;-69
2023/07/31 03:04:21;;;;;;;3.10;1.87;;;13.00;22.40;;;;;;4975209;28;20622;-69
2023/07/31 03:06:46;;;;;;;5.40;1.93;;;13.00;22.40;;;;;;4975274;28;20174;-69
2023/07/31 03:09:12;;;;;;;3.50;1.40;;;13.00;22.20;;;;;;4975836;28;20217;-69
2023/07/31 03:11:37;;;;;;;2.80;1.93;;;13.00;22.10;;;;;;4975107;28;20182;-69
2023/07/31 03:14:03;;;;;;;3.33;1.97;;;13.00;22.60;;;;;;4974993;28;20209;-70
2023/07/31 03:16:28;;;;;;;2.50;1.43;;;13.00;23.00;;;;;;4975952;28;20185;-69
2023/07/31 03:18:54;;;;;;;3.23;1.77;;;12.90;24.60;;;;;;4975382;28;20216;-69
2023/07/31 03:21:20;;;;;;;4.70;2.57;;;12.90;24.60;;;;;;4975030;28;20236;-70
2023/07/31 03:23:45;;;;;;;4.30;1.80;;;12.90;24.10;;;;;;4977778;28;20178;-69
2023/07/31 03:26:11;;;;;;;3.37;1.80;;;12.90;23.70;;;;;;4977233;28;20204;-69
2023/07/31 03:28:37;;;;;;;4.30;2.33;;;12.90;23.50;;;;;;4976868;28;20182;-69
2023/07/31 03:31:02;;;;;;;5.60;2.30;;;12.90;23.00;;;;;;4975956;28;20276;-69
2023/07/31 03:33:28;;;;;;;6.23;2.07;;;12.90;22.50;;;;;;4975113;28;20263;-70
2023/07/31 03:35:53;;;;;;;3.30;1.73;;;12.80;23.10;;;;;;4974560;28;20197;-69
2023/07/31 03:38:19;;;;;;;3.47;2.17;;;12.80;23.90;;;;;;4974796;28;20211;-70
2023/07/31 03:40:45;;;;;;;3.10;2.30;;;12.80;23.50;;;;;;4975334;28;20184;-70
2023/07/31 03:43:11;;;;;;;3.57;1.93;;;12.70;24.40;;;;;;4974902;28;20177;-69
2023/07/31 03:45:36;;;;;;;3.70;1.80;;;12.80;24.80;;;;;;4974848;28;20197;-69
2023/07/31 03:48:03;;;;;;;6.73;2.20;;;12.80;24.50;;;;;;4974721;28;20416;-70
2023/07/31 03:50:28;;;;;;;3.17;2.10;;;12.80;25.30;;;;;;4975316;28;20202;-70
2023/07/31 03:52:54;;;;;;;3.53;2.13;;;12.90;24.60;;;;;;4974689;28;20452;-69
2023/07/31 03:55:21;;;;;;;2.50;1.57;;;12.90;24.50;;;;;;4974618;28;20218;-70
2023/07/31 03:57:47;;;;;;;2.93;2.23;;;13.00;24.60;;;;;;4975562;28;20254;-69
2023/07/31 04:00:13;;;;;;;4.20;2.03;;;13.00;25.20;;;;;;4974510;28;20409;-69
2023/07/31 04:02:38;;;;;;;4.83;2.20;;;13.00;25.20;;;;;;4974572;28;20186;-70
2023/07/31 04:05:04;;;;;;;4.40;2.20;;;13.00;24.60;;;;;;4974984;28;20257;-70
2023/07/31 04:07:29;;;;;;;3.03;1.70;;;13.00;24.70;;;;;;4974388;28;20188;-70
2023/07/31 04:09:57;;;;;;;4.50;1.67;;;13.00;24.80;;;;;;4974543;28;20182;-70
2023/07/31 04:12:22;;;;;;;4.50;2.37;;;13.00;26.00;;;;;;4972925;28;20185;-70
2023/07/31 04:14:48;;;;;;;2.57;1.60;;;13.00;26.70;;;;;;4973000;28;20465;-70
2023/07/31 04:17:14;;;;;;;3.33;1.73;;;13.10;26.90;;;;;;4974394;28;20769;-70
2023/07/31 04:19:39;;;;;;;5.53;2.50;;;13.10;26.20;;;;;;4975021;28;20189;-70
2023/07/31 04:22:05;;;;;;;6.40;3.70;;;13.20;24.80;;;;;;4974103;28;20663;-70
2023/07/31 04:24:30;;;;;;;3.43;2.20;;;13.30;24.90;;;;;;4974212;28;20209;-70
2023/07/31 04:26:56;;;;;;;5.70;2.07;;;13.40;23.70;;;;;;4974841;28;20189;-70
2023/07/31 04:29:22;;;;;;;3.43;2.53;;;13.50;22.50;;;;;;4974644;28;20182;-70
2023/07/31 04:31:48;;;;;;;4.57;2.33;;;13.60;22.20;;;;;;4972793;28;20187;-71
2023/07/31 04:34:13;;;;;;;6.33;2.40;;;13.60;22.80;;;;;;4974712;28;20539;-70
2023/07/31 04:36:39;;;;;;;5.47;2.03;;;13.60;22.60;;;;;;4974506;28;20454;-70
2023/07/31 04:39:05;;;;;;;5.57;2.53;;;13.60;21.80;;;;;;4974854;28;20184;-70
2023/07/31 04:41:30;;;;;;;6.83;2.63;;;13.70;22.10;;;;;;4974106;28;20529;-71
2023/07/31 04:43:56;;;;;;;7.03;2.20;;;13.70;21.40;;;;;;4975789;28;20184;-71
2023/07/31 04:46:21;;;;;;;2.80;2.20;;;13.80;22.00;;;;;;4978943;28;20177;-73
2023/07/31 04:48:47;;;;;;;6.50;2.67;;;13.80;21.00;;;;;;4986600;28;20183;-73
2023/07/31 04:51:12;;;;;;;6.37;2.53;;;14.00;21.10;;;;;;4985842;28;20183;-73
2023/07/31 04:53:38;;;;;;;4.03;2.47;;;14.00;21.10;;;;;;4977943;28;20237;-71
2023/07/31 04:56:04;;;;;;;8.10;2.77;;;14.10;19.90;;;;;;4977591;28;20269;-71
2023/07/31 04:58:29;;;;;;;3.33;2.13;;;14.30;19.20;;;;;;4977805;28;20181;-72
2023/07/31 05:00:55;;;;;;;5.23;2.50;;;14.40;19.20;;;;;;4977828;28;20187;-71
2023/07/31 05:03:21;;;;;;;3.40;2.33;;;14.40;19.40;;;;;;4976119;28;20223;-71
2023/07/31 05:05:46;;;;;;;3.60;1.80;;;14.50;18.60;;;;;;4977541;28;20204;-71
2023/07/31 05:08:12;;;;;;;4.10;2.30;;;14.60;18.70;;;;;;4977854;28;20265;-72
2023/07/31 05:10:37;;;;;;;3.73;1.63;;;14.70;17.80;;;;;;4977978;28;20187;-71
2023/07/31 05:13:03;;;;;;;4.30;2.67;;;14.80;17.40;;;;;;4977574;28;20200;-74
2023/07/31 05:15:29;;;;;;;4.83;2.43;;;15.00;17.50;;;;;;4976961;28;20213;-74
2023/07/31 05:17:55;;;;;;;4.70;2.63;;;15.10;15.80;;;;;;4977395;28;20177;-75
2023/07/31 05:20:21;;;;;;;4.53;2.73;;;15.30;16.10;;;;;;4974616;28;20504;-73
2023/07/31 05:22:46;;;;;;;3.20;2.10;;;15.50;16.70;;;;;;4975630;28;20177;-73
2023/07/31 05:25:12;;;;;;;6.40;2.10;;;15.70;16.00;;;;;;4959197;28;20891;-74
2023/07/31 05:27:38;;;;;;;4.63;2.60;;;15.80;14.30;;;;;;4956157;28;20570;-72
2023/07/31 05:30:04;;;;;;;3.30;2.67;;;15.90;17.40;;;;;;4956505;29;20413;-72
2023/07/31 05:32:30;;;;;;;7.70;2.80;;;16.00;18.20;;;;;;4956303;29;20178;-72
2023/07/31 05:34:56;;;;;;;4.73;2.63;;;16.10;19.20;;;;;;4956339;29;20493;-72
2023/07/31 05:37:22;;;;;;;4.47;1.70;;;16.30;20.30;;;;;;4955020;29;20186;-72
2023/07/31 05:39:47;;;;;;;10.23;2.90;;;16.60;21.10;;;;;;4956227;29;20544;-72
2023/07/31 05:42:13;;;;;;;4.77;2.77;;;17.10;18.20;;;;;;4956374;29;20421;-72
2023/07/31 05:44:38;;;;;;;9.50;2.53;;;17.60;17.20;;;;;;4956023;29;20241;-70
2023/07/31 05:47:04;;;;;;;4.57;2.43;;;18.00;15.20;;;;;;4956244;29;20214;-70
2023/07/31 05:49:30;;;;;;;3.90;2.00;;;18.30;13.40;;;;;;4955912;29;20186;-70
2023/07/31 05:51:56;;;;;;;3.60;2.60;;;18.30;12.70;;;;;;4957069;29;20433;-70
2023/07/31 05:54:21;;;;;;;8.50;2.57;;;18.30;12.30;;;;;;4956297;28;20214;-70
2023/07/31 05:56:47;;;;;;;5.33;2.80;;;18.30;12.90;;;;;;4957560;29;20208;-70
2023/07/31 05:59:13;;;;;;;8.43;2.63;;;18.20;13.70;;;;;;4957541;29;20551;-70
2023/07/31 06:01:39;;;;;;;4.30;2.60;;;18.40;13.20;;;;;;4958062;29;20178;-70
2023/07/31 06:04:04;;;;;;;2.90;2.30;;;18.60;13.20;;;;;;4958564;29;20944;-70
2023/07/31 06:06:30;;;;;;;4.90;2.83;;;18.70;16.00;;;;;;4957108;29;20174;-70
2023/07/31 06:08:56;;;;;;;7.43;2.47;;;19.40;11.10;;;;;;4957896;29;20502;-70
2023/07/31 06:11:22;;;;;;;5.53;2.90;;;19.90;11.10;;;;;;4957243;29;21012;-70
2023/07/31 06:13:48;;;;;;;3.63;2.30;;;19.80;9.20;;;;;;4957623;28;20205;-70
2023/07/31 06:16:15;;;;;;;6.57;2.40;;;19.50;9.80;;;;;;4957636;28;20214;-70
2023/07/31 06:18:41;;;;;;;4.00;2.77;;;19.50;10.50;;;;;;4956028;28;20418;-70
2023/07/31 06:21:06;;;;;;;4.67;2.30;;;19.40;10.20;;;;;;4957781;28;20909;-70
2023/07/31 06:23:32;;;;;;;3.47;2.43;;;19.30;9.50;;;;;;4957248;28;20194;-70
2023/07/31 06:25:58;;;;;;;3.70;2.63;;;19.00;10.00;;;;;;4957460;28;20208;-70
2023/07/31 06:28:30;;;;;;;5.90;3.20;;;19.00;11.40;;;;;;4957730;28;20177;-70
2023/07/31 06:30:57;;;;;;;5.00;3.27;;;19.00;11.40;;;;;;4956735;28;20190;-70
2023/07/31 06:33:23;;;;;;;6.63;2.40;;;19.20;10.60;;;;;;4955359;29;20553;-70
2023/07/31 06:35:49;;;;;;;3.67;1.90;;;19.40;11.70;;;;;;4955861;29;20500;-70
2023/07/31 06:38:14;;;;;;;2.97;2.00;;;19.50;10.80;;;;;;4957370;29;20426;-70
2023/07/31 06:40:40;;;;;;;3.30;2.30;;;19.60;11.80;;;;;;4956891;29;20185;-70
2023/07/31 06:43:09;;;;;;;3.80;2.50;;;20.20;10.90;;;;;;4956421;28;20206;-70
2023/07/31 06:45:35;;;;;;;4.80;2.70;;;21.50;8.10;;;;;;4956030;28;20237;-69
2023/07/31 06:48:02;;;;;;;4.67;2.63;;;22.50;5.20;;;;;;4955133;28;20413;-72
2023/07/31 06:50:28;;;;;;;6.93;4.60;;;24.70;2.60;;;;;;4954486;28;20452;-72
2023/07/31 06:52:54;;;;;;;4.13;3.77;;;27.30;1.00;;;;;;4954446;28;20458;-72
2023/07/31 06:55:21;;;;;;;4.07;3.53;;;28.80;1.00;;;;;;4954659;28;20785;-70
2023/07/31 06:57:48;;;;;;;4.47;4.13;;;29.00;1.00;;;;;;4955288;28;20177;-70
2023/07/31 07:00:14;;;;;;;4.37;4.07;;;28.70;1.00;;;;;;4955316;28;20471;-69
2023/07/31 07:02:40;;;;;;;5.13;3.93;;;29.60;1.00;;;;;;4954911;29;20819;-68
2023/07/31 07:05:07;;;;;;;4.40;4.10;;;29.90;1.00;;;;;;4955551;29;20202;-68
2023/07/31 07:07:32;;;;;;;4.57;4.10;;;29.60;1.00;;;;;;4954505;28;20178;-69
2023/07/31 07:10:01;;;;;;;5.60;5.10;;;28.70;1.00;;;;;;4953443;29;20442;-68
2023/07/31 07:12:29;;;;;;;4.60;4.20;;;27.80;1.00;;;;;;4954753;29;20663;-69
2023/07/31 07:14:55;;;;;;;6.10;4.43;;;26.80;1.00;;;;;;4955830;29;20496;-68
2023/07/31 07:17:20;;;;;;;4.70;3.40;;;26.20;1.00;;;;;;4955635;29;20409;-68
2023/07/31 07:19:48;;;;;;;3.67;3.37;;;25.60;1.00;;;;;;4955886;29;20178;-68
2023/07/31 07:22:13;;;;;;;4.47;4.07;;;25.50;1.00;;;;;;4954820;29;20193;-69
2023/07/31 07:24:39;;;;;;;7.40;4.37;;;26.00;1.00;;;;;;4955236;28;20453;-68
2023/07/31 07:27:05;;;;;;;5.63;4.80;;;26.00;1.00;;;;;;4955383;28;20551;-68
2023/07/31 07:29:31;;;;;;;5.10;3.80;;;26.70;1.00;;;;;;4955157;28;20245;-68
2023/07/31 07:31:56;;;;;;;4.40;4.03;;;26.80;1.00;;;;;;4955140;28;20422;-69
2023/07/31 07:34:28;;;;;;;3.60;3.30;;;26.70;1.00;;;;;;4955071;28;20506;-68
2023/07/31 07:36:54;;;;;;;4.30;3.90;;;27.50;1.00;;;;;;4955162;28;20182;-68
2023/07/31 07:39:21;;;;;;;4.10;3.70;;;28.30;1.00;;;;;;4954772;28;20421;-68
2023/07/31 07:41:46;;;;;;;4.80;4.30;;;28.20;1.00;;;;;;4952788;29;20902;-68
2023/07/31 07:44:13;;;;;;;3.90;3.60;;;28.80;1.00;;;;;;4953637;28;20516;-68
2023/07/31 07:46:39;;;;;;;7.83;5.10;;;29.60;1.00;;;;;;4953954;29;20196;-68
2023/07/31 07:49:04;;;;;;;4.37;3.67;;;30.40;1.00;;;;;;4953031;29;20429;-68
2023/07/31 07:51:31;;;;;;;4.20;3.80;;;30.80;1.00;;;;;;4954065;29;20182;-69
2023/07/31 07:53:58;;;;;;;3.80;3.50;;;30.90;1.00;;;;;;4954529;29;20220;-68
2023/07/31 07:56:25;;;;;;;5.23;3.90;;;29.80;1.00;;;;;;4954161;29;20428;-68
2023/07/31 07:58:51;;;;;;;5.07;4.57;;;29.90;1.00;;;;;;4954308;28;20428;-69
2023/07/31 08:01:16;;;;;;;5.40;4.37;;;30.70;1.00;;;;;;4955008;28;20410;-68
2023/07/31 08:03:46;;;;;;;7.07;6.37;;;31.90;1.00;;;;;;4954080;28;20182;-69
2023/07/31 08:06:11;;;;;;;12.83;7.73;;;32.70;1.00;;;;;;4953239;29;20441;-69
2023/07/31 08:08:38;;;;;;;4.70;4.23;;;33.00;1.00;;;;;;4953948;28;20961;-69
2023/07/31 08:11:03;;;;;;;4.90;4.50;;;33.50;1.00;;;;;;4953882;29;20182;-68
2023/07/31 08:13:29;;;;;;;5.13;4.57;;;33.70;1.00;;;;;;4954335;28;20473;-69
2023/07/31 08:15:55;;;;;;;5.03;4.33;;;32.10;1.00;;;;;;4954375;28;20256;-69
2023/07/31 08:18:21;;;;;;;3.83;3.53;;;31.30;1.00;;;;;;4956506;28;20186;-68
2023/07/31 08:20:46;;;;;;;5.07;4.57;;;28.70;1.00;;;;;;4959088;28;20189;-68
2023/07/31 08:23:12;;;;;;;5.90;4.77;;;28.60;1.00;;;;;;4957811;28;20464;-69
2023/07/31 08:25:38;;;;;;;4.97;4.47;;;28.20;1.00;;;;;;4958842;28;20215;-68
2023/07/31 08:28:05;;;;;;;4.50;4.20;;;28.50;1.00;;;;;;4958472;29;20181;-68
2023/07/31 08:30:31;;;;;;;5.00;4.53;;;30.00;1.00;;;;;;4958363;29;20830;-69
2023/07/31 08:32:56;;;;;;;5.90;4.87;;;30.20;1.00;;;;;;4958003;29;20476;-68
2023/07/31 08:35:24;;;;;;;4.40;4.00;;;31.50;1.00;;;;;;4958196;29;20456;-69
2023/07/31 08:37:49;;;;;;;4.83;4.43;;;30.70;1.00;;;;;;4957175;28;20241;-69
2023/07/31 08:40:15;;;;;;;5.20;4.80;;;32.00;1.00;;;;;;4957611;28;20413;-69
2023/07/31 08:42:48;;;;;;;4.07;3.77;;;32.30;1.00;;;;;;4957337;28;20173;-68
2023/07/31 08:45:18;;;;;;;7.20;4.40;;;30.00;1.00;;;;;;4956232;29;20205;-68
2023/07/31 08:47:51;;;;;;;5.40;4.90;;;31.60;1.00;;;;;;4957555;28;20528;-69
2023/07/31 08:50:19;;;;;;;5.10;4.27;;;33.50;1.00;;;;;;4957191;28;20417;-69
2023/07/31 08:52:46;;;;;;;6.60;5.10;;;34.30;1.00;;;;;;4956698;28;20911;-69
2023/07/31 08:55:12;;;;;;;8.03;4.93;;;36.50;1.00;;;;;;4956808;28;20437;-69
2023/07/31 08:57:39;;;;;;;4.07;3.77;;;35.20;1.00;;;;;;4956838;28;20520;-68
2023/07/31 09:00:06;;;;;;;4.07;3.77;;;32.30;1.00;;;;;;4957632;28;20174;-69
2023/07/31 09:02:41;;;;;;;4.93;4.20;;;31.20;1.00;;;;;;4956873;29;20465;-68
2023/07/31 09:05:07;;;;;;;5.53;4.80;;;32.80;1.00;;;;;;4957233;28;20437;-68
2023/07/31 09:07:35;;;;;;;4.80;4.27;;;33.00;1.00;;;;;;4957053;28;20428;-70
2023/07/31 09:10:00;;;;;;;4.67;4.27;;;32.30;1.00;;;;;;4956785;28;20496;-69
2023/07/31 09:12:26;;;;;;;7.93;4.60;;;31.00;1.00;;;;;;4957072;28;20504;-69
2023/07/31 09:14:51;;;;;;;4.93;4.50;;;29.70;1.00;;;;;;4957351;28;20228;-68
2023/07/31 09:17:37;;;;;;;5.07;4.67;;;28.70;1.00;;;;;;4957612;28;20743;-68
2023/07/31 09:20:19;;;;;;;4.60;4.20;;;28.00;1.00;;;;;;4958272;28;20183;-68
2023/07/31 09:22:45;;;;;;;5.50;4.13;;;26.90;1.00;;;;;;4958019;28;20426;-68
2023/07/31 09:25:19;;;;;;;4.37;3.97;;;26.20;1.00;;;;;;4958392;28;20472;-68
2023/07/31 09:27:56;;;;;;;10.40;6.13;;;25.50;1.00;;;;;;4958215;28;20417;-68
2023/07/31 09:30:22;;;;;;;4.10;3.80;;;25.70;1.00;;;;;;4957294;28;20419;-69
2023/07/31 09:32:49;;;;;;;4.63;4.23;;;26.00;1.00;;;;;;4958750;28;20796;-69
2023/07/31 09:35:27;;;;;;;6.03;4.37;;;25.70;1.00;;;;;;4958658;28;20213;-68
2023/07/31 09:37:54;;;;;;;5.97;5.37;;;25.30;1.00;;;;;;4958337;29;20966;-68
2023/07/31 09:40:47;;;;;;;6.60;6.00;;;25.80;1.00;;;;;;4958035;29;20433;-69
2023/07/31 09:43:17;;;;;;;5.73;4.10;;;26.40;1.00;;;;;;4956319;28;20472;-68
2023/07/31 09:45:44;;;;;;;6.57;5.57;;;26.70;1.00;;;;;;4957799;29;20457;-68
2023/07/31 09:48:17;;;;;;;7.33;4.23;;;26.40;1.00;;;;;;4958732;29;20432;-68
2023/07/31 09:50:45;;;;;;;9.33;5.17;;;25.80;1.00;;;;;;4958125;29;20464;-68
2023/07/31 09:53:11;;;;;;;14.73;7.00;;;25.90;1.00;;;;;;4957540;29;20503;-68
2023/07/31 09:55:40;;;;;;;5.70;4.70;;;26.20;1.00;;;;;;4957539;29;20947;-68
2023/07/31 09:58:08;;;;;;;6.43;3.73;;;26.10;1.00;;;;;;4956295;29;20520;-68
2023/07/31 10:00:34;;;;;;;6.30;4.00;;;25.80;1.00;;;;;;4958063;29;20924;-68
2023/07/31 10:03:02;;;;;;;4.20;3.90;;;25.00;1.00;;;;;;4957607;29;20422;-68
2023/07/31 10:05:36;;;;;;;5.33;4.80;;;25.40;1.00;;;;;;4958043;29;20452;-69
2023/07/31 10:08:03;;;;;;;4.90;4.50;;;25.70;1.00;;;;;;4958312;29;20425;-69
2023/07/31 10:10:29;;;;;;;4.43;4.03;;;25.80;1.00;;;;;;4958203;29;20445;-68
2023/07/31 10:12:56;;;;;;;4.73;4.33;;;25.60;1.00;;;;;;4958130;29;20492;-68
2023/07/31 10:15:22;;;;;;;5.70;3.97;;;25.10;1.00;;;;;;4959153;29;20500;-68
2023/07/31 10:17:49;;;;;;;3.67;3.37;;;25.10;1.00;;;;;;4958744;29;20987;-69
2023/07/31 10:20:18;;;;;;;6.80;4.10;;;25.50;1.00;;;;;;4957948;29;20421;-69
2023/07/31 10:22:47;;;;;;;5.10;4.60;;;25.20;1.00;;;;;;4956734;29;20441;-69
2023/07/31 10:25:14;;;;;;;4.10;3.70;;;24.90;1.00;;;;;;4957287;28;20524;-69
2023/07/31 10:27:40;;;;;;;4.43;4.03;;;24.70;1.00;;;;;;4956783;29;20436;-69
2023/07/31 10:30:09;;;;;;;4.20;3.80;;;24.60;1.00;;;;;;4957383;29;20418;-69
2023/07/31 10:32:36;;;;;;;3.50;3.20;;;24.00;1.00;;;;;;4956066;29;20446;-69
2023/07/31 10:35:03;;;;;;;5.90;3.77;;;24.20;1.00;;;;;;4957247;29;20434;-69
2023/07/31 10:37:36;;;;;;;4.80;4.30;;;24.20;1.00;;;;;;4957074;29;20421;-69
2023/07/31 10:40:26;;;;;;;6.30;4.83;;;24.10;1.00;;;;;;4957391;29;20442;-69
2023/07/31 10:42:53;;;;;;;4.30;3.90;;;24.10;1.00;;;;;;4951619;28;20514;-69
2023/07/31 10:45:36;;;;;;;4.20;3.23;;;24.20;1.00;;;;;;4957457;29;20466;-69
2023/07/31 10:48:23;;;;;;;4.20;3.80;;;24.50;1.00;;;;;;4956740;28;20564;-69
2023/07/31 10:50:59;;;;;;;7.17;4.53;;;24.60;1.00;;;;;;4957085;29;20421;-68
2023/07/31 10:53:30;;;;;;;7.00;4.00;;;24.30;1.00;;;;;;4956794;29;21009;-69
2023/07/31 10:56:00;;;;;;;4.97;4.40;;;24.30;1.00;;;;;;4956014;29;20524;-69
2023/07/31 10:58:25;;;;;;;4.30;3.90;;;24.50;1.00;;;;;;4956159;29;20429;-69
2023/07/31 11:00:59;;;;;;;5.03;3.43;;;24.60;1.00;;;;;;4956510;29;20421;-69
2023/07/31 11:03:42;;;;;;;5.10;4.60;;;24.60;1.00;;;;;;4956094;28;20186;-69
2023/07/31 11:06:08;;;;;;;4.20;3.80;;;25.00;1.00;;;;;;4956509;29;20855;-69
2023/07/31 11:08:35;;;;;;;4.67;4.37;;;24.90;1.00;;;;;;4956311;29;20500;-69
2023/07/31 11:11:01;;;;;;;5.90;4.20;;;24.70;1.00;;;;;;4956161;28;20182;-69
2023/07/31 11:13:26;;;;;;;5.00;4.33;;;24.90;1.00;;;;;;4955914;29;20465;-69
2023/07/31 11:15:52;;;;;;;12.43;4.23;;;25.10;1.00;;;;;;4956080;29;20561;-69
2023/07/31 11:18:18;;;;;;;5.43;4.13;;;25.10;1.00;;;;;;4956300;29;20178;-69
2023/07/31 11:20:44;;;;;;;4.03;3.73;;;25.40;1.00;;;;;;4956892;29;20241;-69
2023/07/31 11:23:10;;;;;;;4.97;4.50;;;25.90;1.00;;;;;;4955803;28;20196;-69
2023/07/31 11:25:38;;;;;;;4.60;4.20;;;26.50;1.00;;;;;;4953566;29;20472;-68
2023/07/31 11:28:08;;;;;;;4.73;4.33;;;26.40;1.00;;;;;;4955691;29;20417;-69
2023/07/31 11:30:35;;;;;;;6.00;4.77;;;26.30;1.00;;;;;;4956490;29;20919;-68
2023/07/31 11:33:04;;;;;;;4.47;4.10;;;26.40;1.00;;;;;;4955377;29;20552;-69
2023/07/31 11:35:35;;;;;;;4.87;4.47;;;26.50;1.00;;;;;;4956578;28;20958;-69
2023/07/31 11:38:02;;;;;;;4.97;4.60;;;26.80;1.00;;;;;;4956081;28;20417;-69
2023/07/31 11:40:31;;;;;;;7.67;5.67;;;27.00;1.00;;;;;;4957664;28;20926;-69
2023/07/31 11:42:58;;;;;;;4.60;4.30;;;27.40;1.00;;;;;;4955998;28;20664;-69
2023/07/31 11:45:30;;;;;;;6.97;5.03;;;27.60;1.00;;;;;;4955043;28;20449;-69
2023/07/31 11:47:56;;;;;;;4.53;4.13;;;27.60;1.00;;;;;;4955443;28;20437;-69
2023/07/31 11:50:25;;;;;;;4.63;4.23;;;27.30;1.00;;;;;;4955829;29;20413;-69
2023/07/31 11:52:57;;;;;;;4.27;3.93;;;27.70;1.00;;;;;;4956236;28;20424;-69
2023/07/31 11:55:23;;;;;;;7.47;4.57;;;27.90;1.00;;;;;;4956496;29;20445;-69
2023/07/31 11:57:49;;;;;;;5.33;4.10;;;28.10;1.00;;;;;;4955866;29;20484;-69
2023/07/31 12:00:16;;;;;;;4.40;4.10;;;27.60;1.00;;;;;;4955818;28;20413;-70
2023/07/31 12:02:42;;;;;;;5.70;4.40;;;27.70;1.00;;;;;;4954987;28;20505;-69
2023/07/31 12:05:12;;;;;;;4.80;4.40;;;27.70;1.00;;;;;;4955405;28;20441;-69
2023/07/31 12:07:49;;;;;;;4.93;4.53;;;27.10;1.00;;;;;;4956366;28;20453;-69
2023/07/31 12:10:24;;;;;;;5.10;4.60;;;26.90;1.00;;;;;;4955628;28;20484;-69
2023/07/31 12:13:05;;;;;;;3.73;3.47;;;27.10;1.00;;;;;;4955115;29;20420;-69
2023/07/31 12:15:34;;;;;;;5.30;4.00;;;27.00;1.00;;;;;;4954933;29;20445;-69
2023/07/31 12:18:04;;;;;;;5.03;4.53;;;26.70;1.00;;;;;;4955651;29;20420;-69
2023/07/31 12:20:31;;;;;;;5.70;4.87;;;26.40;1.00;;;;;;4955470;29;20452;-69
2023/07/31 12:22:58;;;;;;;4.83;4.40;;;26.00;1.00;;;;;;4955524;29;20430;-68
2023/07/31 12:25:28;;;;;;;9.00;4.13;;;26.00;1.00;;;;;;4955802;28;20465;-69
2023/07/31 12:27:53;;;;;;;3.80;3.50;;;25.60;1.00;;;;;;4957374;28;20485;-69
2023/07/31 12:30:34;;;;;;;4.60;4.20;;;25.40;1.00;;;;;;4956679;28;20469;-69
2023/07/31 12:33:04;;;;;;;5.10;4.10;;;25.30;1.00;;;;;;4956921;28;20687;-69
2023/07/31 12:35:37;;;;;;;4.10;3.80;;;25.30;1.00;;;;;;4956409;28;20449;-69
2023/07/31 12:38:03;;;;;;;6.50;4.53;;;25.60;1.00;;;;;;4955933;29;20484;-69
2023/07/31 12:40:29;;;;;;;4.63;4.23;;;25.80;1.00;;;;;;4955948;29;20417;-69
2023/07/31 12:42:54;;;;;;;4.13;3.80;;;25.50;1.00;;;;;;4955450;29;20921;-69
2023/07/31 12:45:21;;;;;;;5.10;4.70;;;25.50;1.00;;;;;;4955168;29;20202;-69
2023/07/31 12:47:46;;;;;;;4.37;3.97;;;25.90;1.00;;;;;;4954783;29;20217;-69
2023/07/31 12:50:12;;;;;;;5.03;4.57;;;26.10;1.00;;;;;;4955121;29;20425;-69